Time;durP1;ratioP1;P1;durP2;ratioP2;P2;SDS_P1;SDS_P2;PMS_P1;PMS_P2;Temp;Humidity;BMP_temperature;BMP_pressure;BME280_temperature;BME280_humidity;BME280_pressure;Samples;Min_cycle;Max_cycle;Signal;HPM_P1;HPM_P2
2021/11/12 00:14:46;;;;;;;79.67;31.93;;;9.60;99.90;;;;;;5047279;28;20513;-59
2021/11/12 00:17:13;;;;;;;73.90;29.93;;;9.60;99.90;;;;;;5063465;28;20219;-59
2021/11/12 00:19:40;;;;;;;78.37;31.47;;;9.60;99.90;;;;;;5060342;28;20198;-59
2021/11/12 00:22:07;;;;;;;77.93;29.37;;;9.60;99.90;;;;;;5064355;28;20214;-59
2021/11/12 00:24:35;;;;;;;79.03;30.80;;;9.60;99.90;;;;;;5056017;28;20202;-58
2021/11/12 00:27:04;;;;;;;83.23;30.57;;;9.60;99.90;;;;;;5064793;28;20229;-59
2021/11/12 00:29:34;;;;;;;77.50;29.13;;;9.60;99.90;;;;;;5060757;28;20787;-58
2021/11/12 00:32:06;;;;;;;84.87;31.93;;;9.60;99.90;;;;;;5051810;28;20656;-59
2021/11/12 00:34:52;;;;;;;85.70;31.67;;;9.50;99.90;;;;;;5060037;28;20206;-58
2021/11/12 00:37:24;;;;;;;82.67;31.00;;;9.60;99.90;;;;;;5062503;28;20777;-59
2021/11/12 00:39:58;;;;;;;88.97;30.63;;;9.50;99.90;;;;;;5058946;28;20198;-58
2021/11/12 00:42:28;;;;;;;90.67;32.60;;;9.50;99.90;;;;;;5061541;28;20191;-58
2021/11/12 00:45:02;;;;;;;85.63;31.13;;;9.50;99.90;;;;;;5061039;28;20191;-59
2021/11/12 00:47:38;;;;;;;84.80;30.70;;;9.50;99.90;;;;;;5047396;28;20210;-58
2021/11/12 00:50:24;;;;;;;87.77;32.20;;;9.50;99.90;;;;;;5064001;28;20198;-59
2021/11/12 00:55:39;;;;;;;90.80;31.43;;;9.60;99.90;;;;;;5055304;28;20218;-58
2021/11/12 00:58:06;;;;;;;93.87;30.93;;;9.60;99.90;;;;;;5064465;28;20277;-58
2021/11/12 01:00:32;;;;;;;88.57;31.63;;;9.60;99.90;;;;;;5060080;28;20195;-58
2021/11/12 01:02:59;;;;;;;96.10;31.70;;;9.60;99.90;;;;;;5051200;28;20210;-59
2021/11/12 01:05:26;;;;;;;81.50;29.70;;;9.60;99.90;;;;;;5060685;28;20218;-59
2021/11/12 01:07:53;;;;;;;92.23;31.27;;;9.60;99.90;;;;;;5063485;28;20195;-59
2021/11/12 01:10:20;;;;;;;84.83;30.70;;;9.60;99.90;;;;;;5061033;28;20209;-58
2021/11/12 01:12:48;;;;;;;88.90;32.50;;;9.60;99.90;;;;;;5058724;28;20241;-59
2021/11/12 01:15:17;;;;;;;77.90;31.63;;;9.60;99.90;;;;;;5063116;28;20632;-58
2021/11/12 01:17:45;;;;;;;91.10;30.97;;;9.60;99.90;;;;;;5048304;28;20340;-59
2021/11/12 01:20:14;;;;;;;88.97;30.33;;;9.60;99.90;;;;;;5063317;28;20199;-58
2021/11/12 01:22:41;;;;;;;84.03;30.90;;;9.60;99.90;;;;;;5060658;28;20205;-58
2021/11/12 01:25:11;;;;;;;87.13;31.90;;;9.60;99.90;;;;;;5063762;28;20621;-58
2021/11/12 01:27:39;;;;;;;90.10;31.83;;;9.60;99.90;;;;;;5053905;28;20202;-58
2021/11/12 01:30:09;;;;;;;88.00;31.30;;;9.60;99.90;;;;;;5063611;28;20209;-59
2021/11/12 01:32:36;;;;;;;100.83;33.10;;;9.60;99.90;;;;;;5059064;28;20195;-58
2021/11/12 01:35:05;;;;;;;90.87;32.00;;;9.60;99.90;;;;;;5050707;28;20218;-58
2021/11/12 01:37:33;;;;;;;97.40;33.47;;;9.60;99.90;;;;;;5059028;28;20225;-59
2021/11/12 01:40:05;;;;;;;91.37;32.30;;;9.60;99.90;;;;;;5063658;28;20770;-59
2021/11/12 01:43:06;;;;;;;90.37;31.73;;;9.60;99.90;;;;;;5054554;28;20207;-59
2021/11/12 01:48:34;;;;;;;91.27;31.63;;;9.60;99.90;;;;;;5046312;28;20238;-58
2021/11/12 01:51:06;;;;;;;108.63;32.83;;;9.50;99.90;;;;;;5058155;28;20198;-58
2021/11/12 01:53:36;;;;;;;92.50;31.77;;;9.50;99.90;;;;;;5059020;28;20214;-59
2021/11/12 01:56:24;;;;;;;93.63;30.00;;;9.60;99.90;;;;;;5063255;28;20302;-58
2021/11/12 01:59:05;;;;;;;96.77;30.00;;;9.50;99.90;;;;;;5057594;28;20281;-59
2021/11/12 02:01:36;;;;;;;90.33;30.10;;;9.60;99.90;;;;;;5058875;28;20264;-59
2021/11/12 02:04:06;;;;;;;91.77;31.30;;;9.60;99.90;;;;;;5050235;28;20205;-59
2021/11/12 02:06:33;;;;;;;82.97;29.30;;;9.50;99.90;;;;;;5058830;28;20217;-59
2021/11/12 02:09:01;;;;;;;103.47;32.87;;;9.60;99.90;;;;;;5063451;28;20682;-59
2021/11/12 02:11:28;;;;;;;101.37;32.07;;;9.60;99.90;;;;;;5059673;28;20202;-59
2021/11/12 02:13:56;;;;;;;92.87;30.80;;;9.60;99.90;;;;;;5058125;28;20202;-59
2021/11/12 02:16:27;;;;;;;120.07;33.47;;;9.50;99.90;;;;;;5060646;28;20215;-59
2021/11/12 02:18:56;;;;;;;104.23;30.90;;;9.50;99.90;;;;;;5062162;28;20202;-59
2021/11/12 02:21:27;;;;;;;132.60;33.10;;;9.50;99.90;;;;;;5047925;28;20717;-59
2021/11/12 02:24:01;;;;;;;114.37;32.47;;;9.50;99.90;;;;;;5052650;28;20729;-59
2021/11/12 02:26:31;;;;;;;116.53;33.77;;;9.50;99.90;;;;;;5058511;28;20219;-59
2021/11/12 02:28:58;;;;;;;122.23;31.97;;;9.40;99.90;;;;;;5058169;28;20221;-59
2021/11/12 02:31:28;;;;;;;109.87;32.40;;;9.40;99.90;;;;;;5059099;28;20205;-59
2021/11/12 02:33:57;;;;;;;115.90;31.23;;;9.40;99.90;;;;;;5062307;28;20690;-59
2021/11/12 02:36:25;;;;;;;112.43;31.83;;;9.40;99.90;;;;;;5047619;28;20226;-59
2021/11/12 02:38:54;;;;;;;107.43;31.20;;;9.40;99.90;;;;;;5055863;28;20194;-59
2021/11/12 02:41:23;;;;;;;107.27;30.93;;;9.40;99.90;;;;;;5060165;28;20214;-59
2021/11/12 02:43:51;;;;;;;103.23;30.63;;;9.40;99.90;;;;;;5062556;28;20195;-59
2021/11/12 02:46:22;;;;;;;103.67;31.47;;;9.40;99.90;;;;;;5056002;28;20223;-60
2021/11/12 02:48:50;;;;;;;102.60;31.10;;;9.40;99.90;;;;;;5061905;28;20206;-59
2021/11/12 02:51:21;;;;;;;88.70;28.73;;;9.40;99.90;;;;;;5053761;28;20214;-59
2021/11/12 02:53:50;;;;;;;105.03;31.13;;;9.40;99.90;;;;;;5059535;28;20211;-59
2021/11/12 02:56:25;;;;;;;103.13;29.87;;;9.30;99.90;;;;;;5060715;28;20217;-59
2021/11/12 02:58:52;;;;;;;108.17;29.47;;;9.30;99.90;;;;;;5062951;28;20659;-59
2021/11/12 03:01:19;;;;;;;83.20;29.33;;;9.40;99.90;;;;;;5055798;28;20656;-59
2021/11/12 03:03:45;;;;;;;94.80;28.87;;;9.40;99.90;;;;;;5058137;28;20194;-59
2021/11/12 03:06:12;;;;;;;81.77;28.07;;;9.40;99.90;;;;;;5061721;28;20222;-60
2021/11/12 03:08:39;;;;;;;90.20;30.03;;;9.40;99.90;;;;;;5055558;28;20206;-60
2021/11/12 03:11:07;;;;;;;90.27;29.57;;;9.40;99.90;;;;;;5066421;28;20206;-59
2021/11/12 03:13:33;;;;;;;100.77;30.17;;;9.40;99.90;;;;;;5062450;28;20195;-59
2021/11/12 03:16:01;;;;;;;106.97;31.00;;;9.40;99.90;;;;;;5061429;28;20713;-59
2021/11/12 03:18:29;;;;;;;99.63;29.87;;;9.40;99.90;;;;;;5061738;28;20203;-59
2021/11/12 03:20:56;;;;;;;105.37;31.83;;;9.40;99.90;;;;;;5065754;28;20210;-59
2021/11/12 03:23:26;;;;;;;96.37;31.00;;;9.40;99.90;;;;;;5049982;28;20643;-59
2021/11/12 03:26:04;;;;;;;91.70;30.57;;;9.40;99.90;;;;;;5065729;28;20218;-59
2021/11/12 03:28:48;;;;;;;89.13;29.37;;;9.40;99.90;;;;;;5056821;28;20273;-59
2021/11/12 03:46:50;;;;;;;85.47;29.70;;;9.40;99.90;;;;;;5059838;28;20206;-58
2021/11/12 04:02:00;;;;;;;81.93;30.83;;;9.30;99.90;;;;;;5062286;28;20211;-59
2021/11/12 04:04:43;;;;;;;80.77;29.20;;;9.30;99.90;;;;;;5054901;28;20914;-59
2021/11/12 04:07:36;;;;;;;72.87;28.30;;;9.40;99.90;;;;;;5060407;28;20713;-59
2021/11/12 04:18:26;;;;;;;78.03;29.03;;;9.30;99.90;;;;;;5061445;28;20253;-59
2021/11/12 04:21:19;;;;;;;75.00;29.63;;;9.30;99.90;;;;;;5058968;28;20264;-59
2021/11/12 05:10:54;;;;;;;66.53;29.37;;;9.20;99.90;;;;;;5048932;28;20238;-59
2021/11/12 05:13:48;;;;;;;72.30;29.20;;;9.10;99.90;;;;;;5058766;28;20203;-59
2021/11/12 05:43:56;;;;;;;156.67;27.67;;;8.90;99.90;;;;;;5057032;28;20222;-59
2021/11/12 05:46:36;;;;;;;76.87;24.50;;;8.80;99.90;;;;;;5061616;28;20221;-59
2021/11/12 05:51:59;;;;;;;110.97;24.53;;;8.70;99.90;;;;;;5045034;28;20203;-59
2021/11/12 05:57:13;;;;;;;72.60;21.77;;;8.70;99.90;;;;;;5058207;28;20210;-59
2021/11/12 05:59:40;;;;;;;70.97;21.90;;;8.70;99.90;;;;;;5042702;28;20208;-59
2021/11/12 06:02:06;;;;;;;106.83;22.80;;;8.60;99.90;;;;;;5059911;28;20574;-59
2021/11/12 06:04:33;;;;;;;91.63;22.53;;;8.60;99.90;;;;;;5057263;28;20551;-58
2021/11/12 06:07:01;;;;;;;84.80;22.23;;;8.60;99.90;;;;;;5057803;28;20683;-59
2021/11/12 06:09:27;;;;;;;146.10;25.00;;;8.50;99.90;;;;;;5056929;28;20221;-59
2021/11/12 06:11:54;;;;;;;118.87;23.00;;;8.50;99.90;;;;;;5046255;28;20207;-59
2021/11/12 06:14:23;;;;;;;154.93;23.67;;;8.50;99.90;;;;;;5044702;28;20298;-59
2021/11/12 06:16:50;;;;;;;128.97;23.07;;;8.50;99.90;;;;;;5056245;28;20683;-59
2021/11/12 06:19:17;;;;;;;92.63;22.33;;;8.50;99.90;;;;;;5051628;28;20217;-60
2021/11/12 06:21:44;;;;;;;110.60;21.97;;;8.50;99.90;;;;;;5058232;28;20222;-59
2021/11/12 06:24:11;;;;;;;102.40;20.30;;;8.50;99.90;;;;;;5056323;28;20202;-59
2021/11/12 06:26:38;;;;;;;113.60;22.00;;;8.50;99.90;;;;;;5056779;28;20245;-59
2021/11/12 06:29:05;;;;;;;113.37;20.50;;;8.50;99.90;;;;;;5042895;28;20213;-59
2021/11/12 06:31:33;;;;;;;77.77;20.43;;;8.50;99.90;;;;;;5070371;28;20210;-58
2021/11/12 06:34:00;;;;;;;95.70;21.93;;;8.40;99.90;;;;;;5055840;28;20199;-59
2021/11/12 06:36:27;;;;;;;95.70;21.33;;;8.40;99.90;;;;;;5060740;28;20249;-59
2021/11/12 06:38:55;;;;;;;90.87;23.33;;;8.40;99.90;;;;;;5056951;28;20652;-59
2021/11/12 06:41:41;;;;;;;125.03;23.30;;;8.30;99.90;;;;;;5066469;28;20240;-59
2021/11/12 06:49:54;;;;;;;92.90;22.30;;;8.40;99.90;;;;;;5059634;28;20277;-59
2021/11/12 06:52:22;;;;;;;86.87;22.53;;;8.30;99.90;;;;;;5057720;28;20206;-59
2021/11/12 06:54:49;;;;;;;87.90;22.67;;;8.20;99.90;;;;;;5053829;28;20294;-58
2021/11/12 06:57:18;;;;;;;87.30;22.47;;;8.20;99.90;;;;;;5059001;28;21766;-58
2021/11/12 06:59:46;;;;;;;105.67;22.50;;;8.20;99.90;;;;;;5053355;28;20277;-58
2021/11/12 07:02:16;;;;;;;109.47;22.87;;;8.20;99.90;;;;;;5064929;28;20206;-58
2021/11/12 07:04:43;;;;;;;81.43;23.23;;;8.20;99.90;;;;;;5064921;28;20203;-58
2021/11/12 07:07:10;;;;;;;80.30;22.90;;;8.20;99.90;;;;;;5063554;28;20211;-58
2021/11/12 07:09:38;;;;;;;93.60;21.70;;;8.20;99.90;;;;;;5060075;28;20603;-58
2021/11/12 07:12:05;;;;;;;91.53;22.20;;;8.20;99.90;;;;;;5057441;28;20198;-58
2021/11/12 07:14:32;;;;;;;83.80;21.37;;;8.20;99.90;;;;;;5057347;28;20202;-58
2021/11/12 07:16:59;;;;;;;102.33;22.60;;;8.20;99.90;;;;;;5039491;28;20230;-58
2021/11/12 07:19:27;;;;;;;89.47;22.00;;;8.20;99.90;;;;;;5063516;28;20240;-58
2021/11/12 07:21:57;;;;;;;87.27;23.73;;;8.20;99.90;;;;;;5065827;28;20202;-58
2021/11/12 07:24:24;;;;;;;73.33;20.73;;;8.20;99.90;;;;;;5058021;28;20215;-58
2021/11/12 07:26:51;;;;;;;82.83;22.17;;;8.20;99.90;;;;;;5053911;28;20238;-58
2021/11/12 07:29:20;;;;;;;78.67;21.27;;;8.20;99.90;;;;;;5057749;28;20211;-59
2021/11/12 07:31:47;;;;;;;73.50;19.87;;;8.10;99.90;;;;;;5046888;28;20199;-58
2021/11/12 07:34:14;;;;;;;51.73;18.07;;;8.20;99.90;;;;;;5063688;28;20198;-59
2021/11/12 07:36:45;;;;;;;52.80;19.10;;;8.20;99.90;;;;;;5058971;28;20223;-59
2021/11/12 07:39:16;;;;;;;38.87;17.07;;;8.20;99.90;;;;;;5065320;28;20203;-58
2021/11/12 07:42:05;;;;;;;46.60;18.33;;;8.20;99.90;;;;;;5055951;28;20948;-59
2021/11/12 07:44:39;;;;;;;51.43;16.77;;;8.20;99.90;;;;;;5054969;28;21276;-58
2021/11/12 07:47:12;;;;;;;45.80;16.50;;;8.20;99.90;;;;;;5049037;28;20210;-58
2021/11/12 07:49:40;;;;;;;52.40;17.63;;;8.20;99.90;;;;;;5057645;28;20886;-59
2021/11/12 07:52:10;;;;;;;41.53;18.03;;;8.20;99.90;;;;;;5057982;28;20211;-59
2021/11/12 07:54:37;;;;;;;49.80;17.60;;;8.30;99.90;;;;;;5050181;28;20321;-59
2021/11/12 07:57:05;;;;;;;56.17;18.33;;;8.30;99.90;;;;;;5059838;28;20222;-59
2021/11/12 07:59:33;;;;;;;43.03;16.40;;;8.30;99.90;;;;;;5053135;28;20209;-59
2021/11/12 08:02:00;;;;;;;51.93;17.93;;;8.30;99.90;;;;;;5051419;28;20206;-59
2021/11/12 08:04:27;;;;;;;47.87;16.97;;;8.30;99.90;;;;;;5060018;28;20213;-59
2021/11/12 08:06:55;;;;;;;60.93;17.73;;;8.40;99.90;;;;;;5053034;28;20734;-59
2021/11/12 08:09:26;;;;;;;56.80;17.70;;;8.40;99.90;;;;;;5058203;28;20233;-59
2021/11/12 08:11:56;;;;;;;57.93;17.17;;;8.40;99.90;;;;;;5057224;28;20215;-59
2021/11/12 08:14:25;;;;;;;49.77;18.33;;;8.40;99.90;;;;;;5051381;28;20690;-58
2021/11/12 08:17:07;;;;;;;59.70;18.80;;;8.50;99.90;;;;;;5050825;28;20733;-51
2021/11/12 08:19:38;;;;;;;60.00;20.37;;;8.50;99.90;;;;;;5049943;28;20931;-55
2021/11/12 08:22:08;;;;;;;61.43;19.27;;;8.50;99.90;;;;;;5060661;28;20251;-52
2021/11/12 08:24:42;;;;;;;65.17;21.00;;;8.60;99.90;;;;;;5055889;28;20203;-53
2021/11/12 08:27:30;;;;;;;45.60;17.23;;;8.60;99.90;;;;;;5059298;28;20236;-54
2021/11/12 08:30:08;;;;;;;47.20;16.57;;;8.60;99.90;;;;;;5056025;28;20210;-51
2021/11/12 08:32:47;;;;;;;44.30;16.20;;;8.60;99.90;;;;;;5047789;28;20285;-53
2021/11/12 08:35:26;;;;;;;38.93;15.47;;;8.60;99.90;;;;;;5055810;28;20690;-59
2021/11/12 08:38:01;;;;;;;37.33;14.40;;;8.60;99.90;;;;;;5057191;28;20695;-59
2021/11/12 08:40:42;;;;;;;36.23;13.30;;;8.60;99.90;;;;;;5063776;28;20539;-60
2021/11/12 08:43:13;;;;;;;37.63;13.60;;;8.60;99.90;;;;;;5059227;28;20283;-59
2021/11/12 08:45:42;;;;;;;34.13;13.03;;;8.60;99.90;;;;;;5054613;28;20981;-59
2021/11/12 08:48:12;;;;;;;28.23;11.67;;;8.60;99.90;;;;;;5051818;28;20194;-59
2021/11/12 08:50:39;;;;;;;33.37;12.80;;;8.70;99.90;;;;;;5059861;28;20195;-59
2021/11/12 08:53:07;;;;;;;30.67;12.87;;;8.70;99.90;;;;;;5068133;28;20206;-59
2021/11/12 08:55:38;;;;;;;24.63;11.33;;;8.70;99.90;;;;;;5055250;28;20226;-59
2021/11/12 08:58:06;;;;;;;29.43;12.53;;;8.70;99.90;;;;;;5059053;28;20297;-59
2021/11/12 09:00:34;;;;;;;30.67;12.60;;;8.70;99.90;;;;;;5057663;28;20195;-59
2021/11/12 09:03:02;;;;;;;26.90;11.37;;;8.70;99.90;;;;;;5051445;28;20202;-60
2021/11/12 09:05:29;;;;;;;29.57;12.40;;;8.80;99.90;;;;;;5053572;28;20257;-60
2021/11/12 09:07:56;;;;;;;32.50;12.90;;;8.80;99.90;;;;;;5063980;28;20566;-60
2021/11/12 09:10:25;;;;;;;36.10;13.70;;;8.80;99.90;;;;;;5056876;28;20207;-59
2021/11/12 09:12:57;;;;;;;26.13;12.67;;;8.80;99.90;;;;;;5058749;28;20619;-59
2021/11/12 09:15:27;;;;;;;34.53;13.37;;;8.90;99.90;;;;;;5063683;28;20240;-59
2021/11/12 09:17:54;;;;;;;26.63;13.03;;;8.90;99.90;;;;;;5061619;28;20233;-59
2021/11/12 09:20:21;;;;;;;35.43;14.60;;;8.90;99.90;;;;;;5046522;28;20237;-58
2021/11/12 09:22:48;;;;;;;34.57;13.90;;;8.90;99.90;;;;;;5064086;28;20321;-59
2021/11/12 09:25:15;;;;;;;34.33;14.63;;;8.90;99.90;;;;;;5063194;28;20226;-59
2021/11/12 09:27:43;;;;;;;29.97;13.10;;;9.00;99.90;;;;;;5056783;28;20199;-59
2021/11/12 09:30:14;;;;;;;39.07;14.03;;;9.00;99.90;;;;;;5067756;28;20205;-58
2021/11/12 09:32:41;;;;;;;34.87;14.70;;;9.00;99.90;;;;;;5057108;28;20217;-59
2021/11/12 09:35:10;;;;;;;37.57;14.67;;;9.00;99.90;;;;;;5042638;28;20221;-59
2021/11/12 09:37:36;;;;;;;32.10;13.67;;;9.00;99.90;;;;;;5066193;28;20198;-59
2021/11/12 09:40:05;;;;;;;39.00;15.10;;;9.00;99.90;;;;;;5056405;28;20199;-59
2021/11/12 09:42:33;;;;;;;33.43;15.03;;;9.00;99.90;;;;;;5063786;28;20293;-59
2021/11/12 09:45:01;;;;;;;33.40;14.23;;;9.00;99.90;;;;;;5053434;28;20272;-59
2021/11/12 09:47:30;;;;;;;31.27;13.70;;;9.00;99.90;;;;;;5061647;28;20209;-58
2021/11/12 09:50:00;;;;;;;29.70;14.50;;;9.10;99.90;;;;;;5048622;28;20405;-59
2021/11/12 09:52:28;;;;;;;32.83;13.33;;;9.10;99.90;;;;;;5058730;28;20213;-58
2021/11/12 09:54:55;;;;;;;32.07;13.37;;;9.10;99.90;;;;;;5051474;28;20333;-59
2021/11/12 09:57:23;;;;;;;29.63;12.80;;;9.10;99.90;;;;;;5062423;28;20555;-58
2021/11/12 09:59:51;;;;;;;31.20;13.33;;;9.20;99.90;;;;;;5053856;28;20222;-58
2021/11/12 10:02:18;;;;;;;35.53;15.20;;;9.20;99.90;;;;;;5058049;28;20263;-58
2021/11/12 10:04:47;;;;;;;33.70;13.73;;;9.20;99.90;;;;;;5045860;28;20690;-58
2021/11/12 10:07:16;;;;;;;35.77;15.40;;;9.20;99.90;;;;;;5054937;28;20218;-59
2021/11/12 10:09:48;;;;;;;41.03;16.60;;;9.20;99.90;;;;;;5059285;28;20271;-58
2021/11/12 10:12:15;;;;;;;31.30;15.23;;;9.20;99.90;;;;;;5055739;28;20261;-59
2021/11/12 10:14:49;;;;;;;29.90;14.53;;;9.10;99.90;;;;;;5054690;28;20214;-59
2021/11/12 10:17:19;;;;;;;26.07;12.17;;;9.10;99.90;;;;;;5061785;28;20211;-59
2021/11/12 10:19:48;;;;;;;25.37;12.73;;;9.20;99.90;;;;;;5049607;28;20215;-59
2021/11/12 10:22:17;;;;;;;22.47;12.03;;;9.20;99.90;;;;;;5057072;28;20222;-59
2021/11/12 10:24:44;;;;;;;21.60;11.57;;;9.20;99.90;;;;;;5058595;28;20206;-58
2021/11/12 10:27:13;;;;;;;22.77;11.87;;;9.30;99.90;;;;;;5055569;28;20222;-60
2021/11/12 10:29:45;;;;;;;17.97;10.57;;;9.30;99.90;;;;;;5055372;28;20199;-59
2021/11/12 10:32:19;;;;;;;18.63;10.03;;;9.30;99.90;;;;;;5056943;28;20610;-58
2021/11/12 10:34:49;;;;;;;18.17;10.93;;;9.40;99.90;;;;;;5048259;28;20206;-60
2021/11/12 10:37:18;;;;;;;17.87;11.43;;;9.40;99.90;;;;;;5041138;28;20226;-58
2021/11/12 10:39:46;;;;;;;19.33;11.87;;;9.40;99.90;;;;;;5051975;28;20215;-54
2021/11/12 10:42:18;;;;;;;17.03;11.47;;;9.50;99.90;;;;;;5038065;28;20207;-58
2021/11/12 10:44:47;;;;;;;15.80;10.93;;;9.60;99.90;;;;;;5051494;28;20217;-58
2021/11/12 10:47:16;;;;;;;19.40;10.07;;;9.60;99.90;;;;;;5052060;28;20230;-58
2021/11/12 10:49:44;;;;;;;15.43;10.37;;;9.70;99.90;;;;;;5052543;28;20228;-58
2021/11/12 10:52:14;;;;;;;14.13;9.47;;;9.70;99.90;;;;;;5046044;28;20206;-58
2021/11/12 10:54:55;;;;;;;15.87;10.13;;;9.60;99.90;;;;;;5055964;28;20195;-58
2021/11/12 10:57:26;;;;;;;15.90;10.23;;;9.60;99.90;;;;;;5050969;28;20199;-58
2021/11/12 11:00:00;;;;;;;14.37;9.77;;;9.60;99.90;;;;;;5054126;28;20227;-58
2021/11/12 11:02:28;;;;;;;15.83;10.23;;;9.70;99.90;;;;;;5059947;28;20199;-56
2021/11/12 11:04:57;;;;;;;13.90;9.43;;;9.70;99.90;;;;;;5048657;28;20205;-58
2021/11/12 11:07:27;;;;;;;11.70;8.43;;;9.70;99.90;;;;;;5035883;28;20221;-58
2021/11/12 11:09:55;;;;;;;12.27;8.67;;;9.70;99.90;;;;;;5051016;28;20201;-58
2021/11/12 11:12:36;;;;;;;12.87;8.47;;;9.70;99.90;;;;;;5045840;28;20209;-58
2021/11/12 11:15:24;;;;;;;13.03;8.73;;;9.70;99.90;;;;;;5054500;28;20194;-57
2021/11/12 11:18:03;;;;;;;11.73;8.63;;;9.70;99.90;;;;;;5059570;28;20302;-58
2021/11/12 11:20:31;;;;;;;9.70;7.40;;;9.70;99.90;;;;;;5057463;28;20252;-57
2021/11/12 11:23:00;;;;;;;9.40;8.43;;;9.70;99.90;;;;;;5048905;28;20217;-58
2021/11/12 11:25:29;;;;;;;9.63;7.27;;;9.70;99.90;;;;;;5057312;28;20305;-57
2021/11/12 11:27:58;;;;;;;8.73;7.33;;;9.70;99.90;;;;;;5057214;28;20209;-58
2021/11/12 11:30:26;;;;;;;8.97;7.77;;;9.80;99.90;;;;;;5061429;28;20928;-57
2021/11/12 11:32:53;;;;;;;8.17;7.37;;;9.80;99.90;;;;;;5058761;28;20858;-57
2021/11/12 11:35:22;;;;;;;8.33;7.07;;;9.90;99.90;;;;;;5061201;28;20214;-58
2021/11/12 11:37:53;;;;;;;10.27;7.53;;;9.90;99.90;;;;;;5058398;28;20206;-58
2021/11/12 11:40:23;;;;;;;8.07;7.27;;;10.00;99.90;;;;;;5047014;28;20299;-58
2021/11/12 11:42:50;;;;;;;9.70;7.60;;;10.00;99.90;;;;;;5060289;28;20206;-57
2021/11/12 11:45:18;;;;;;;9.17;7.67;;;10.00;99.90;;;;;;5056230;28;20243;-57
2021/11/12 11:47:46;;;;;;;9.10;7.97;;;10.00;99.90;;;;;;5058132;28;20207;-56
2021/11/12 11:50:21;;;;;;;10.53;8.10;;;10.00;99.90;;;;;;5062720;28;20191;-58
2021/11/12 11:52:48;;;;;;;11.50;7.93;;;10.10;99.90;;;;;;5060535;28;20217;-57
2021/11/12 11:55:38;;;;;;;11.07;8.17;;;10.10;99.90;;;;;;5044800;28;20230;-58
2021/11/12 11:58:31;;;;;;;10.10;7.70;;;10.20;99.90;;;;;;5057941;28;20293;-58
2021/11/12 12:01:34;;;;;;;11.33;7.13;;;10.20;99.90;;;;;;5059799;28;20226;-58
2021/11/12 12:04:35;;;;;;;10.87;7.67;;;10.20;99.90;;;;;;5059039;28;20671;-58
2021/11/12 12:07:28;;;;;;;11.20;7.73;;;10.20;99.90;;;;;;5060365;28;20224;-57
2021/11/12 12:10:19;;;;;;;9.40;7.73;;;10.10;99.90;;;;;;5049775;28;20210;-57
2021/11/12 12:13:05;;;;;;;10.50;7.20;;;10.10;99.90;;;;;;5055894;28;20207;-57
2021/11/12 12:15:50;;;;;;;10.60;7.27;;;10.00;99.90;;;;;;5053230;28;20215;-58
2021/11/12 12:18:21;;;;;;;11.37;7.13;;;10.10;99.90;;;;;;5058770;28;20194;-58
2021/11/12 13:22:05;;;;;;;8.13;6.90;;;10.20;99.90;;;;;;5061106;28;20255;-58
2021/11/12 13:24:37;;;;;;;9.53;6.30;;;10.20;99.90;;;;;;5050165;28;20202;-57
2021/11/12 13:27:05;;;;;;;7.10;6.40;;;10.20;99.90;;;;;;5057451;28;20307;-58
2021/11/12 13:29:33;;;;;;;10.10;6.13;;;10.20;99.90;;;;;;5048299;28;20195;-58
2021/11/12 13:32:02;;;;;;;11.70;7.33;;;10.20;99.90;;;;;;5052596;28;20210;-58
2021/11/12 13:34:30;;;;;;;10.53;7.50;;;10.20;99.90;;;;;;5053197;28;20206;-58
2021/11/12 13:36:58;;;;;;;9.40;7.03;;;10.20;99.90;;;;;;5060420;28;20226;-58
2021/11/12 13:39:25;;;;;;;12.03;6.83;;;10.20;99.90;;;;;;5051792;28;20222;-58
2021/11/12 13:41:55;;;;;;;9.43;6.77;;;10.20;99.90;;;;;;5059409;28;20203;-57
2021/11/12 13:44:24;;;;;;;9.30;6.63;;;10.20;99.90;;;;;;5033547;28;20582;-58
2021/11/12 13:46:53;;;;;;;12.43;7.67;;;10.20;99.90;;;;;;5053279;28;20707;-58
2021/11/12 13:49:29;;;;;;;10.37;6.70;;;10.20;99.90;;;;;;5049069;28;20206;-58
2021/11/12 13:52:02;;;;;;;7.57;6.63;;;10.10;99.90;;;;;;5054138;28;20198;-58
2021/11/12 13:54:30;;;;;;;9.40;6.43;;;10.10;99.90;;;;;;5052716;28;20198;-58
2021/11/12 13:56:57;;;;;;;8.33;6.00;;;10.10;99.90;;;;;;5060100;28;20219;-58
2021/11/12 13:59:24;;;;;;;9.83;6.40;;;10.00;99.90;;;;;;5040856;28;20226;-58
2021/11/12 14:02:01;;;;;;;7.17;5.70;;;10.00;99.90;;;;;;5058144;28;20370;-58
2021/11/12 14:04:30;;;;;;;7.83;5.57;;;10.00;99.90;;;;;;5048093;28;20305;-58
2021/11/12 14:06:58;;;;;;;8.03;5.67;;;9.90;99.90;;;;;;5060884;28;20233;-58
2021/11/12 14:09:33;;;;;;;8.40;5.60;;;9.90;99.90;;;;;;5047141;28;20902;-58
2021/11/12 14:12:08;;;;;;;7.37;5.77;;;9.90;99.90;;;;;;5052699;28;20205;-58
2021/11/12 14:14:37;;;;;;;5.50;4.13;;;9.90;99.90;;;;;;5029943;28;20202;-58
2021/11/12 14:17:25;;;;;;;6.00;4.17;;;9.90;99.90;;;;;;5045570;28;20230;-50
2021/11/12 14:20:09;;;;;;;4.90;3.37;;;9.80;99.90;;;;;;5043282;28;20298;-56
2021/11/12 14:22:45;;;;;;;5.47;3.30;;;9.70;99.90;;;;;;5056070;28;20202;-56
2021/11/12 14:25:30;;;;;;;5.20;3.70;;;9.70;99.90;;;;;;5050667;28;20541;-56
2021/11/12 14:28:16;;;;;;;6.90;3.37;;;9.70;99.90;;;;;;5059514;28;20914;-55
2021/11/12 14:30:58;;;;;;;7.40;3.27;;;9.60;99.90;;;;;;5046171;28;20207;-46
2021/11/12 14:33:39;;;;;;;4.93;3.50;;;9.60;99.90;;;;;;5060410;28;20213;-45
2021/11/12 14:36:23;;;;;;;4.07;3.30;;;9.60;99.90;;;;;;5057632;28;20205;-47
2021/11/12 14:38:54;;;;;;;5.70;3.10;;;9.50;99.90;;;;;;5054540;28;20220;-47
2021/11/12 14:41:34;;;;;;;4.13;3.43;;;9.40;99.90;;;;;;5052708;28;20208;-45
2021/11/12 14:44:24;;;;;;;4.23;3.47;;;9.40;99.90;;;;;;5044344;28;20207;-46
2021/11/12 14:47:04;;;;;;;4.83;4.00;;;9.40;99.90;;;;;;5059705;28;20231;-46
2021/11/12 14:49:34;;;;;;;4.70;3.60;;;9.30;99.90;;;;;;5064019;28;20249;-47
2021/11/12 14:52:05;;;;;;;4.30;3.77;;;9.30;99.90;;;;;;5049021;28;20206;-49
2021/11/12 14:54:37;;;;;;;3.73;3.30;;;9.30;99.90;;;;;;5064722;28;20206;-47
2021/11/12 14:57:11;;;;;;;6.40;4.47;;;9.30;99.90;;;;;;5049539;28;20930;-46
2021/11/12 14:59:40;;;;;;;4.90;4.40;;;9.20;99.90;;;;;;5066743;28;20206;-47
2021/11/12 15:02:09;;;;;;;6.20;4.53;;;9.20;99.90;;;;;;5048724;28;20191;-46
2021/11/12 15:04:36;;;;;;;5.57;4.00;;;9.20;99.90;;;;;;5063025;28;20220;-50
2021/11/12 15:07:03;;;;;;;4.33;3.70;;;9.20;99.90;;;;;;5056295;28;20814;-47
2021/11/12 15:09:32;;;;;;;4.67;3.87;;;9.10;99.90;;;;;;5064561;28;20212;-47
2021/11/12 15:12:00;;;;;;;5.73;4.50;;;9.10;99.90;;;;;;5045805;28;20191;-46
2021/11/12 15:14:29;;;;;;;6.37;4.80;;;9.10;99.90;;;;;;5064470;28;20593;-48
2021/11/12 15:16:57;;;;;;;6.03;4.67;;;9.10;99.90;;;;;;5038196;28;20227;-51
2021/11/12 15:19:25;;;;;;;6.37;5.50;;;9.00;99.90;;;;;;5060318;28;20218;-51
2021/11/12 15:21:57;;;;;;;6.97;4.97;;;9.00;99.90;;;;;;5057265;28;20222;-50
2021/11/12 15:24:31;;;;;;;6.13;4.87;;;9.00;99.90;;;;;;5055572;28;20208;-53
2021/11/12 15:27:06;;;;;;;6.87;5.30;;;9.00;99.90;;;;;;5055428;28;20729;-50
2021/11/12 15:29:37;;;;;;;7.13;5.33;;;8.90;99.90;;;;;;5059938;28;20851;-48
2021/11/12 15:32:17;;;;;;;9.60;5.67;;;8.90;99.90;;;;;;5045161;28;20198;-50
2021/11/12 15:34:48;;;;;;;8.37;5.53;;;8.90;99.90;;;;;;5062467;28;20647;-48
2021/11/12 15:37:22;;;;;;;8.20;5.90;;;8.80;99.90;;;;;;5057375;28;20219;-52
2021/11/12 15:40:00;;;;;;;6.57;5.93;;;8.80;99.90;;;;;;5064982;28;21885;-48
2021/11/12 15:42:40;;;;;;;8.73;6.20;;;8.80;99.90;;;;;;5056998;28;20977;-50
2021/11/12 15:45:13;;;;;;;6.97;6.00;;;8.70;99.90;;;;;;5053133;28;20202;-54
2021/11/12 15:47:44;;;;;;;7.20;5.70;;;8.70;99.90;;;;;;5046530;28;20624;-50
2021/11/12 15:50:15;;;;;;;6.83;6.23;;;8.60;99.90;;;;;;5045774;28;20213;-54
2021/11/12 15:52:49;;;;;;;7.40;6.50;;;8.60;99.90;;;;;;5054587;28;20658;-51
2021/11/12 15:55:33;;;;;;;7.70;6.47;;;8.60;99.90;;;;;;5055285;28;20232;-50
2021/11/12 16:00:51;;;;;;;7.57;6.87;;;8.50;99.90;;;;;;5055952;28;20608;-52
2021/11/12 16:03:51;;;;;;;8.93;7.50;;;8.50;99.90;;;;;;5045700;28;20575;-51
2021/11/12 16:09:40;;;;;;;7.97;7.20;;;8.40;99.90;;;;;;5066208;27;20549;-51
2021/11/12 16:14:56;;;;;;;10.27;8.20;;;8.30;99.90;;;;;;5050026;28;20309;-50
2021/11/12 16:20:37;;;;;;;9.97;8.93;;;8.30;99.90;;;;;;4990612;28;20204;-55
2021/11/12 16:26:08;;;;;;;9.83;8.70;;;8.20;99.90;;;;;;4972205;28;20225;-49
2021/11/12 16:28:46;;;;;;;11.07;8.93;;;8.20;99.90;;;;;;4970714;28;20221;-53
2021/11/12 16:31:13;;;;;;;10.20;9.27;;;8.10;99.90;;;;;;5002565;28;20218;-53
2021/11/12 16:33:40;;;;;;;11.53;9.53;;;8.10;99.90;;;;;;5025034;28;20222;-51
2021/11/12 16:36:08;;;;;;;11.00;9.40;;;8.10;99.90;;;;;;5039070;28;20222;-52
2021/11/12 16:38:36;;;;;;;11.63;9.93;;;8.10;99.90;;;;;;5028060;28;20265;-51
2021/11/12 16:41:07;;;;;;;10.37;9.10;;;8.00;99.90;;;;;;5039820;28;20218;-50